Clam Lake, WI (54517)

1:51 PM CDT on July 29, 2016 (GMT -0500)
RAWS | | Change Station

Elev 1500 ft 46.20 °N, 90.97 °W | Updated 49 minutes ago

Clear
Clear
73.0 °F
Feels Like 77 °F
N
5.0
Wind Variable Wind from NNW
Gusts 10.0 mph

Today
High -- | Low -- °F
--% Chance of Precip.
Yesterday
High -- | Low -- °F
Precip. -- in
Pressure 30.11 in
Visibility 10.0 miles
Clouds Clear
Heat Index 77 °F
Dew Point 57.0 °F
Humidity 57%
Rainfall in
Snow Depth Not available.
5:42 AM 8:37 PM
Waning Crescent, 20% visible
METAR KASX 291753Z AUTO 03011KT 10SM CLR 22/13 A3010 RMK AO2 SLP196 T02220128 10222 20106 58004
Pressure 30.11 in
Visibility 10.0 miles
Clouds Clear
Heat Index 77 °F
Dew Point 57.0 °F
Humidity 57%
Rainfall in
Snow Depth Not available.
5:42 AM 8:37 PM
Waning Crescent, 20% visible
METAR KASX 291753Z AUTO 03011KT 10SM CLR 22/13 A3010 RMK AO2 SLP196 T02220128 10222 20106 58004

10-Day Weather Forecast

Almanac

Astronomy

Jul. 29, 2016 Rise Set
Actual Time
Civil Twilight
Nautical Twilight
Astronomical Twilight
Moon
Length of Visible Light
Length of Day
Tomorrow will be .
, % of the Moon is Illuminated

Today's Extremes

State Highs State Lows

Community

WunderPhotos

Upload Photos

1,928,393 photos uploaded!

WunderBlog® & News

Nearby

Air Quality

  Air Quality AQ Index Pollutant
Not available.

Snow Depth

Station Depth Elevation

Earthquake Activity

City Distance Mag. Time & Date
Minimum magnitude displayed is 2.5.

Coastal Water Temperatures

Place Temperature

Stations

Nearby Weather Stations

Station Location Temp. Windchill Dew Point Humidity Wind Precip. Elev Updated Type
                   

Watches & Warnings

There are currently no watches in effect.